sensor_id;sensor_type;location;lat;lon;timestamp;temperature;humidity
827;DHT22;395;48.132;11.608;2023-09-12T00:00:48;22.00;1.00
827;DHT22;395;48.132;11.608;2023-09-12T00:03:14;22.00;1.00
827;DHT22;395;48.132;11.608;2023-09-12T00:05:40;22.00;1.00
827;DHT22;395;48.132;11.608;2023-09-12T00:08:05;22.00;1.00
827;DHT22;395;48.132;11.608;2023-09-12T00:10:31;21.90;1.00
827;DHT22;395;48.132;11.608;2023-09-12T00:12:58;21.80;1.00
827;DHT22;395;48.132;11.608;2023-09-12T00:15:27;21.80;1.00
827;DHT22;395;48.132;11.608;2023-09-12T00:17:53;21.70;1.00
827;DHT22;395;48.132;11.608;2023-09-12T00:20:19;21.60;1.00
827;DHT22;395;48.132;11.608;2023-09-12T00:22:45;21.60;1.00
827;DHT22;395;48.132;11.608;2023-09-12T00:25:11;21.50;1.00
827;DHT22;395;48.132;11.608;2023-09-12T00:27:37;21.50;1.00
827;DHT22;395;48.132;11.608;2023-09-12T00:30:02;21.50;1.00
827;DHT22;395;48.132;11.608;2023-09-12T00:32:28;21.40;1.00
827;DHT22;395;48.132;11.608;2023-09-12T00:34:54;21.40;1.00
827;DHT22;395;48.132;11.608;2023-09-12T00:37:19;21.40;1.00
827;DHT22;395;48.132;11.608;2023-09-12T00:39:45;21.50;1.00
827;DHT22;395;48.132;11.608;2023-09-12T00:42:12;21.50;1.00
827;DHT22;395;48.132;11.608;2023-09-12T00:44:38;21.50;1.00
827;DHT22;395;48.132;11.608;2023-09-12T00:47:04;21.40;1.00
827;DHT22;395;48.132;11.608;2023-09-12T00:49:30;21.40;1.00
827;DHT22;395;48.132;11.608;2023-09-12T00:51:57;21.30;1.00
827;DHT22;395;48.132;11.608;2023-09-12T00:54:23;21.30;1.00
827;DHT22;395;48.132;11.608;2023-09-12T00:56:49;21.30;1.00
827;DHT22;395;48.132;11.608;2023-09-12T00:59:16;21.30;1.00
827;DHT22;395;48.132;11.608;2023-09-12T01:01:43;21.30;1.00
827;DHT22;395;48.132;11.608;2023-09-12T01:04:10;21.20;1.00
827;DHT22;395;48.132;11.608;2023-09-12T01:06:37;21.10;1.00
827;DHT22;395;48.132;11.608;2023-09-12T01:09:04;21.00;1.00
827;DHT22;395;48.132;11.608;2023-09-12T01:11:30;21.00;1.00
827;DHT22;395;48.132;11.608;2023-09-12T01:13:56;21.10;1.00
827;DHT22;395;48.132;11.608;2023-09-12T01:16:22;21.00;1.00
827;DHT22;395;48.132;11.608;2023-09-12T01:18:48;21.10;1.00
827;DHT22;395;48.132;11.608;2023-09-12T01:29:46;21.00;1.00
827;DHT22;395;48.132;11.608;2023-09-12T01:32:13;20.90;1.00
827;DHT22;395;48.132;11.608;2023-09-12T01:34:39;20.90;1.00
827;DHT22;395;48.132;11.608;2023-09-12T01:37:05;20.90;1.00
827;DHT22;395;48.132;11.608;2023-09-12T01:39:31;20.80;1.00
827;DHT22;395;48.132;11.608;2023-09-12T01:41:58;20.80;1.00
827;DHT22;395;48.132;11.608;2023-09-12T01:44:25;20.70;1.00
827;DHT22;395;48.132;11.608;2023-09-12T01:46:53;20.80;1.00
827;DHT22;395;48.132;11.608;2023-09-12T01:49:22;20.80;1.00
827;DHT22;395;48.132;11.608;2023-09-12T01:51:48;20.80;1.00
827;DHT22;395;48.132;11.608;2023-09-12T01:54:14;20.80;1.00
827;DHT22;395;48.132;11.608;2023-09-12T01:56:40;20.80;1.00
827;DHT22;395;48.132;11.608;2023-09-12T01:59:07;20.70;1.00
827;DHT22;395;48.132;11.608;2023-09-12T02:01:32;20.70;1.00
827;DHT22;395;48.132;11.608;2023-09-12T02:03:58;20.60;1.00
827;DHT22;395;48.132;11.608;2023-09-12T02:06:25;20.60;1.00
827;DHT22;395;48.132;11.608;2023-09-12T02:08:50;20.70;1.00
827;DHT22;395;48.132;11.608;2023-09-12T02:11:16;20.70;1.00
827;DHT22;395;48.132;11.608;2023-09-12T02:13:42;20.80;1.00
827;DHT22;395;48.132;11.608;2023-09-12T02:16:07;20.70;1.00
827;DHT22;395;48.132;11.608;2023-09-12T02:18:33;20.70;1.00
827;DHT22;395;48.132;11.608;2023-09-12T02:20:59;20.70;1.00
827;DHT22;395;48.132;11.608;2023-09-12T02:23:24;20.60;1.00
827;DHT22;395;48.132;11.608;2023-09-12T02:25:50;20.60;1.00
827;DHT22;395;48.132;11.608;2023-09-12T02:28:15;20.50;1.00
827;DHT22;395;48.132;11.608;2023-09-12T02:30:41;20.50;1.00
827;DHT22;395;48.132;11.608;2023-09-12T02:33:07;20.50;1.00
827;DHT22;395;48.132;11.608;2023-09-12T02:35:32;20.60;1.00
827;DHT22;395;48.132;11.608;2023-09-12T02:37:58;20.60;1.00
827;DHT22;395;48.132;11.608;2023-09-12T02:40:24;20.60;1.00
827;DHT22;395;48.132;11.608;2023-09-12T02:42:50;20.60;1.00
827;DHT22;395;48.132;11.608;2023-09-12T02:45:16;20.60;1.00
827;DHT22;395;48.132;11.608;2023-09-12T02:47:41;20.60;1.00
827;DHT22;395;48.132;11.608;2023-09-12T02:50:09;20.60;1.00
827;DHT22;395;48.132;11.608;2023-09-12T02:52:34;20.60;1.00
827;DHT22;395;48.132;11.608;2023-09-12T02:55:00;20.60;1.00
827;DHT22;395;48.132;11.608;2023-09-12T02:57:26;20.60;1.00
827;DHT22;395;48.132;11.608;2023-09-12T02:59:52;20.50;1.00
827;DHT22;395;48.132;11.608;2023-09-12T03:02:17;20.50;1.00
827;DHT22;395;48.132;11.608;2023-09-12T03:04:43;20.50;1.00
827;DHT22;395;48.132;11.608;2023-09-12T03:07:08;20.40;1.00
827;DHT22;395;48.132;11.608;2023-09-12T03:09:34;20.50;1.00
827;DHT22;395;48.132;11.608;2023-09-12T03:12:04;20.50;1.00
827;DHT22;395;48.132;11.608;2023-09-12T03:14:29;20.40;1.00
827;DHT22;395;48.132;11.608;2023-09-12T03:16:55;20.40;1.00
827;DHT22;395;48.132;11.608;2023-09-12T03:19:21;20.30;1.00
827;DHT22;395;48.132;11.608;2023-09-12T03:21:47;20.30;1.00
827;DHT22;395;48.132;11.608;2023-09-12T03:24:13;20.20;1.00
827;DHT22;395;48.132;11.608;2023-09-12T03:26:38;20.30;1.00
827;DHT22;395;48.132;11.608;2023-09-12T03:29:04;20.30;1.00
827;DHT22;395;48.132;11.608;2023-09-12T03:31:30;20.20;1.00
827;DHT22;395;48.132;11.608;2023-09-12T03:33:56;20.30;1.00
827;DHT22;395;48.132;11.608;2023-09-12T03:36:22;20.30;1.00
827;DHT22;395;48.132;11.608;2023-09-12T03:38:48;20.30;1.00
827;DHT22;395;48.132;11.608;2023-09-12T03:41:14;20.30;1.00
827;DHT22;395;48.132;11.608;2023-09-12T03:43:39;20.30;1.00
827;DHT22;395;48.132;11.608;2023-09-12T03:46:05;20.20;1.00
827;DHT22;395;48.132;11.608;2023-09-12T03:48:30;20.30;1.00
827;DHT22;395;48.132;11.608;2023-09-12T03:50:57;20.30;1.00
827;DHT22;395;48.132;11.608;2023-09-12T03:53:22;20.30;1.00
827;DHT22;395;48.132;11.608;2023-09-12T03:55:48;20.30;1.00
827;DHT22;395;48.132;11.608;2023-09-12T03:58:14;20.30;1.00
827;DHT22;395;48.132;11.608;2023-09-12T04:00:39;20.40;1.00
827;DHT22;395;48.132;11.608;2023-09-12T04:03:05;20.30;1.00
827;DHT22;395;48.132;11.608;2023-09-12T04:05:31;20.30;1.00
827;DHT22;395;48.132;11.608;2023-09-12T04:07:56;20.30;1.00
827;DHT22;395;48.132;11.608;2023-09-12T04:10:22;20.20;1.00
827;DHT22;395;48.132;11.608;2023-09-12T04:12:48;20.00;1.00
827;DHT22;395;48.132;11.608;2023-09-12T04:15:13;20.00;1.00
827;DHT22;395;48.132;11.608;2023-09-12T04:17:39;20.00;1.00
827;DHT22;395;48.132;11.608;2023-09-12T04:20:05;20.00;1.00
827;DHT22;395;48.132;11.608;2023-09-12T04:22:31;20.00;1.00
827;DHT22;395;48.132;11.608;2023-09-12T04:24:57;20.00;1.00
827;DHT22;395;48.132;11.608;2023-09-12T04:27:22;20.00;1.00
827;DHT22;395;48.132;11.608;2023-09-12T04:29:48;20.00;1.00
827;DHT22;395;48.132;11.608;2023-09-12T04:32:13;20.10;1.00
827;DHT22;395;48.132;11.608;2023-09-12T04:34:42;20.00;1.00
827;DHT22;395;48.132;11.608;2023-09-12T04:37:08;20.00;1.00
827;DHT22;395;48.132;11.608;2023-09-12T04:39:35;19.90;1.00
827;DHT22;395;48.132;11.608;2023-09-12T04:42:00;19.80;1.00
827;DHT22;395;48.132;11.608;2023-09-12T04:44:26;19.70;1.00
827;DHT22;395;48.132;11.608;2023-09-12T04:46:52;19.60;1.00
827;DHT22;395;48.132;11.608;2023-09-12T04:49:17;19.60;1.00
827;DHT22;395;48.132;11.608;2023-09-12T04:51:43;19.50;1.00
827;DHT22;395;48.132;11.608;2023-09-12T04:54:08;19.70;1.00
827;DHT22;395;48.132;11.608;2023-09-12T04:56:34;19.80;1.00
827;DHT22;395;48.132;11.608;2023-09-12T04:59:00;19.80;1.00
827;DHT22;395;48.132;11.608;2023-09-12T05:01:25;19.80;1.00
827;DHT22;395;48.132;11.608;2023-09-12T05:03:51;19.80;1.00
827;DHT22;395;48.132;11.608;2023-09-12T05:06:17;19.80;1.00
827;DHT22;395;48.132;11.608;2023-09-12T05:08:43;19.80;1.00
827;DHT22;395;48.132;11.608;2023-09-12T05:11:09;19.80;1.00
827;DHT22;395;48.132;11.608;2023-09-12T05:13:34;19.80;1.00
827;DHT22;395;48.132;11.608;2023-09-12T05:16:00;19.80;1.00
827;DHT22;395;48.132;11.608;2023-09-12T05:18:26;19.70;1.00
827;DHT22;395;48.132;11.608;2023-09-12T05:20:51;19.80;1.00
827;DHT22;395;48.132;11.608;2023-09-12T05:23:17;19.80;1.00
827;DHT22;395;48.132;11.608;2023-09-12T05:25:43;19.80;1.00
827;DHT22;395;48.132;11.608;2023-09-12T05:28:08;19.80;1.00
827;DHT22;395;48.132;11.608;2023-09-12T05:30:34;19.90;1.00
827;DHT22;395;48.132;11.608;2023-09-12T05:33:00;19.90;1.00
827;DHT22;395;48.132;11.608;2023-09-12T05:35:25;19.90;1.00
827;DHT22;395;48.132;11.608;2023-09-12T05:37:51;19.90;1.00
827;DHT22;395;48.132;11.608;2023-09-12T05:40:18;20.00;1.00
827;DHT22;395;48.132;11.608;2023-09-12T05:42:44;20.10;1.00
827;DHT22;395;48.132;11.608;2023-09-12T05:45:09;20.00;1.00
827;DHT22;395;48.132;11.608;2023-09-12T05:47:35;20.00;1.00
827;DHT22;395;48.132;11.608;2023-09-12T05:50:01;20.10;1.00
827;DHT22;395;48.132;11.608;2023-09-12T05:52:29;20.10;1.00
827;DHT22;395;48.132;11.608;2023-09-12T05:54:56;20.20;1.00
827;DHT22;395;48.132;11.608;2023-09-12T05:57:21;20.30;1.00
827;DHT22;395;48.132;11.608;2023-09-12T05:59:47;20.40;1.00
827;DHT22;395;48.132;11.608;2023-09-12T06:02:13;20.50;1.00
827;DHT22;395;48.132;11.608;2023-09-12T06:04:38;20.50;1.00
827;DHT22;395;48.132;11.608;2023-09-12T06:07:04;20.60;1.00
827;DHT22;395;48.132;11.608;2023-09-12T06:09:30;20.60;1.00
827;DHT22;395;48.132;11.608;2023-09-12T06:11:56;20.60;1.00
827;DHT22;395;48.132;11.608;2023-09-12T06:14:22;20.60;1.00
827;DHT22;395;48.132;11.608;2023-09-12T06:16:48;20.50;1.00
827;DHT22;395;48.132;11.608;2023-09-12T06:19:14;20.50;1.00
827;DHT22;395;48.132;11.608;2023-09-12T06:21:40;20.50;1.00
827;DHT22;395;48.132;11.608;2023-09-12T06:24:20;20.50;1.00
827;DHT22;395;48.132;11.608;2023-09-12T06:26:49;20.50;1.00
827;DHT22;395;48.132;11.608;2023-09-12T06:29:15;20.50;1.00
827;DHT22;395;48.132;11.608;2023-09-12T06:31:41;20.70;1.00
827;DHT22;395;48.132;11.608;2023-09-12T06:34:07;20.80;1.00
827;DHT22;395;48.132;11.608;2023-09-12T06:36:33;20.80;1.00
827;DHT22;395;48.132;11.608;2023-09-12T06:38:59;20.90;1.00
827;DHT22;395;48.132;11.608;2023-09-12T06:41:26;21.00;1.00
827;DHT22;395;48.132;11.608;2023-09-12T06:43:52;21.10;1.00
827;DHT22;395;48.132;11.608;2023-09-12T06:46:18;21.10;1.00
827;DHT22;395;48.132;11.608;2023-09-12T06:48:46;21.20;1.00
827;DHT22;395;48.132;11.608;2023-09-12T06:51:14;21.20;1.00
827;DHT22;395;48.132;11.608;2023-09-12T06:53:40;21.30;1.00
827;DHT22;395;48.132;11.608;2023-09-12T06:56:06;21.20;1.00
827;DHT22;395;48.132;11.608;2023-09-12T06:58:32;21.20;1.00
827;DHT22;395;48.132;11.608;2023-09-12T07:01:07;21.30;1.00
827;DHT22;395;48.132;11.608;2023-09-12T07:03:35;21.40;1.00
827;DHT22;395;48.132;11.608;2023-09-12T07:06:02;21.40;1.00
827;DHT22;395;48.132;11.608;2023-09-12T07:08:30;21.50;1.00
827;DHT22;395;48.132;11.608;2023-09-12T07:10:56;21.50;1.00
827;DHT22;395;48.132;11.608;2023-09-12T07:13:22;21.60;1.00
827;DHT22;395;48.132;11.608;2023-09-12T07:15:52;21.70;1.00
827;DHT22;395;48.132;11.608;2023-09-12T07:18:18;21.60;1.00
827;DHT22;395;48.132;11.608;2023-09-12T07:20:45;21.60;1.00
827;DHT22;395;48.132;11.608;2023-09-12T07:23:10;21.70;1.00
827;DHT22;395;48.132;11.608;2023-09-12T07:25:40;21.70;1.00
827;DHT22;395;48.132;11.608;2023-09-12T07:28:07;21.90;1.00
827;DHT22;395;48.132;11.608;2023-09-12T07:30:33;22.00;1.00
827;DHT22;395;48.132;11.608;2023-09-12T07:32:59;22.10;1.00
827;DHT22;395;48.132;11.608;2023-09-12T07:35:25;22.20;1.00
827;DHT22;395;48.132;11.608;2023-09-12T07:37:51;22.30;1.00
827;DHT22;395;48.132;11.608;2023-09-12T07:40:16;22.30;1.00
827;DHT22;395;48.132;11.608;2023-09-12T07:42:42;22.40;1.00
827;DHT22;395;48.132;11.608;2023-09-12T07:45:08;22.40;1.00
827;DHT22;395;48.132;11.608;2023-09-12T07:47:34;22.50;1.00
827;DHT22;395;48.132;11.608;2023-09-12T07:50:00;22.50;1.00
827;DHT22;395;48.132;11.608;2023-09-12T07:52:26;22.50;1.00
827;DHT22;395;48.132;11.608;2023-09-12T07:54:52;22.50;1.00
827;DHT22;395;48.132;11.608;2023-09-12T07:57:23;22.60;1.00
827;DHT22;395;48.132;11.608;2023-09-12T07:59:48;22.60;1.00
827;DHT22;395;48.132;11.608;2023-09-12T08:02:14;22.60;1.00
827;DHT22;395;48.132;11.608;2023-09-12T08:04:40;22.60;1.00
827;DHT22;395;48.132;11.608;2023-09-12T08:07:05;22.60;1.00
827;DHT22;395;48.132;11.608;2023-09-12T08:09:54;22.70;1.00
827;DHT22;395;48.132;11.608;2023-09-12T08:12:21;22.70;1.00
827;DHT22;395;48.132;11.608;2023-09-12T08:14:48;22.70;1.00
827;DHT22;395;48.132;11.608;2023-09-12T08:17:14;22.80;1.00
827;DHT22;395;48.132;11.608;2023-09-12T08:19:41;22.90;1.00
827;DHT22;395;48.132;11.608;2023-09-12T08:22:07;22.90;1.00
827;DHT22;395;48.132;11.608;2023-09-12T08:24:34;22.90;1.00
827;DHT22;395;48.132;11.608;2023-09-12T08:27:01;23.00;1.00
827;DHT22;395;48.132;11.608;2023-09-12T08:29:28;23.00;1.00
827;DHT22;395;48.132;11.608;2023-09-12T08:31:54;23.10;1.00
827;DHT22;395;48.132;11.608;2023-09-12T08:34:23;23.10;1.00
827;DHT22;395;48.132;11.608;2023-09-12T08:36:49;23.20;1.00
827;DHT22;395;48.132;11.608;2023-09-12T08:39:16;23.20;1.00
827;DHT22;395;48.132;11.608;2023-09-12T08:41:42;23.30;1.00
827;DHT22;395;48.132;11.608;2023-09-12T08:44:08;23.30;1.00
827;DHT22;395;48.132;11.608;2023-09-12T08:46:34;23.30;1.00
827;DHT22;395;48.132;11.608;2023-09-12T08:49:03;23.30;1.00
827;DHT22;395;48.132;11.608;2023-09-12T08:51:30;23.40;1.00
827;DHT22;395;48.132;11.608;2023-09-12T08:53:57;23.40;1.00
827;DHT22;395;48.132;11.608;2023-09-12T08:56:23;23.50;1.00
827;DHT22;395;48.132;11.608;2023-09-12T08:58:50;23.50;1.00
827;DHT22;395;48.132;11.608;2023-09-12T09:01:18;23.60;1.00
827;DHT22;395;48.132;11.608;2023-09-12T09:03:44;23.60;1.00
827;DHT22;395;48.132;11.608;2023-09-12T09:06:11;23.60;1.00
827;DHT22;395;48.132;11.608;2023-09-12T09:08:38;23.70;1.00
827;DHT22;395;48.132;11.608;2023-09-12T09:11:04;23.70;1.00
827;DHT22;395;48.132;11.608;2023-09-12T09:13:34;23.80;1.00
827;DHT22;395;48.132;11.608;2023-09-12T09:16:11;23.80;1.00
827;DHT22;395;48.132;11.608;2023-09-12T09:19:01;23.90;1.00
827;DHT22;395;48.132;11.608;2023-09-12T09:21:29;24.00;1.00
827;DHT22;395;48.132;11.608;2023-09-12T09:23:59;24.00;1.00
827;DHT22;395;48.132;11.608;2023-09-12T09:26:25;24.00;1.00
827;DHT22;395;48.132;11.608;2023-09-12T09:29:05;24.00;1.00
827;DHT22;395;48.132;11.608;2023-09-12T09:31:31;24.10;1.00
827;DHT22;395;48.132;11.608;2023-09-12T09:33:58;24.20;1.00
827;DHT22;395;48.132;11.608;2023-09-12T09:36:25;24.20;1.00
827;DHT22;395;48.132;11.608;2023-09-12T09:38:51;24.30;1.00
827;DHT22;395;48.132;11.608;2023-09-12T09:41:20;24.30;1.00
827;DHT22;395;48.132;11.608;2023-09-12T09:43:50;24.40;1.00
827;DHT22;395;48.132;11.608;2023-09-12T09:46:17;24.50;1.00
827;DHT22;395;48.132;11.608;2023-09-12T09:48:49;24.50;1.00
827;DHT22;395;48.132;11.608;2023-09-12T09:51:15;24.50;1.00
827;DHT22;395;48.132;11.608;2023-09-12T09:53:41;24.60;1.00
827;DHT22;395;48.132;11.608;2023-09-12T09:56:14;24.60;1.00
827;DHT22;395;48.132;11.608;2023-09-12T10:01:17;24.80;1.00
827;DHT22;395;48.132;11.608;2023-09-12T10:03:45;24.80;1.00
827;DHT22;395;48.132;11.608;2023-09-12T10:06:13;24.90;1.00
827;DHT22;395;48.132;11.608;2023-09-12T10:08:40;25.00;1.00
827;DHT22;395;48.132;11.608;2023-09-12T10:11:07;25.00;1.00
827;DHT22;395;48.132;11.608;2023-09-12T10:13:33;25.00;1.00
827;DHT22;395;48.132;11.608;2023-09-12T10:16:01;25.10;1.00
827;DHT22;395;48.132;11.608;2023-09-12T10:18:35;25.10;1.00
827;DHT22;395;48.132;11.608;2023-09-12T10:21:10;25.10;1.00
827;DHT22;395;48.132;11.608;2023-09-12T10:23:44;25.10;1.00
827;DHT22;395;48.132;11.608;2023-09-12T10:26:11;25.20;1.00
827;DHT22;395;48.132;11.608;2023-09-12T10:28:40;25.20;1.00
827;DHT22;395;48.132;11.608;2023-09-12T10:31:08;25.20;1.00
827;DHT22;395;48.132;11.608;2023-09-12T10:33:35;25.20;1.00
827;DHT22;395;48.132;11.608;2023-09-12T10:36:03;25.20;1.00
827;DHT22;395;48.132;11.608;2023-09-12T10:38:30;25.30;1.00
827;DHT22;395;48.132;11.608;2023-09-12T10:40:58;25.30;1.00
827;DHT22;395;48.132;11.608;2023-09-12T10:43:25;25.30;1.00
827;DHT22;395;48.132;11.608;2023-09-12T10:45:51;25.40;1.00
827;DHT22;395;48.132;11.608;2023-09-12T10:48:18;25.40;1.00
827;DHT22;395;48.132;11.608;2023-09-12T10:50:44;25.40;1.00
827;DHT22;395;48.132;11.608;2023-09-12T10:53:12;25.40;1.00
827;DHT22;395;48.132;11.608;2023-09-12T10:55:38;25.50;1.00
827;DHT22;395;48.132;11.608;2023-09-12T10:58:08;25.50;1.00
827;DHT22;395;48.132;11.608;2023-09-12T11:00:34;25.50;1.00
827;DHT22;395;48.132;11.608;2023-09-12T11:05:56;25.60;1.00
827;DHT22;395;48.132;11.608;2023-09-12T11:08:22;25.60;1.00
827;DHT22;395;48.132;11.608;2023-09-12T11:11:16;25.60;1.00
827;DHT22;395;48.132;11.608;2023-09-12T11:13:43;25.70;1.00
827;DHT22;395;48.132;11.608;2023-09-12T11:16:16;25.80;1.00
827;DHT22;395;48.132;11.608;2023-09-12T11:21:38;25.80;1.00
827;DHT22;395;48.132;11.608;2023-09-12T11:24:03;25.90;1.00
827;DHT22;395;48.132;11.608;2023-09-12T11:26:29;25.90;1.00
827;DHT22;395;48.132;11.608;2023-09-12T11:28:55;25.90;1.00
827;DHT22;395;48.132;11.608;2023-09-12T11:31:27;26.00;1.00
827;DHT22;395;48.132;11.608;2023-09-12T11:33:54;26.00;1.00
827;DHT22;395;48.132;11.608;2023-09-12T11:36:19;26.00;1.00
827;DHT22;395;48.132;11.608;2023-09-12T11:38:49;26.10;1.00
827;DHT22;395;48.132;11.608;2023-09-12T11:41:38;26.10;1.00
827;DHT22;395;48.132;11.608;2023-09-12T11:44:04;26.20;1.00
827;DHT22;395;48.132;11.608;2023-09-12T11:46:32;26.20;1.00
827;DHT22;395;48.132;11.608;2023-09-12T11:49:01;26.20;1.00
827;DHT22;395;48.132;11.608;2023-09-12T11:51:27;26.30;1.00
827;DHT22;395;48.132;11.608;2023-09-12T11:53:52;26.30;1.00
827;DHT22;395;48.132;11.608;2023-09-12T11:56:18;26.30;1.00
827;DHT22;395;48.132;11.608;2023-09-12T11:58:44;26.40;1.00
827;DHT22;395;48.132;11.608;2023-09-12T12:01:12;26.40;1.00
827;DHT22;395;48.132;11.608;2023-09-12T12:03:37;26.50;1.00
827;DHT22;395;48.132;11.608;2023-09-12T12:06:04;26.50;1.00
827;DHT22;395;48.132;11.608;2023-09-12T12:08:31;26.60;1.00
827;DHT22;395;48.132;11.608;2023-09-12T12:10:57;26.60;1.00
827;DHT22;395;48.132;11.608;2023-09-12T12:13:26;26.70;1.00
827;DHT22;395;48.132;11.608;2023-09-12T12:15:53;26.80;1.00
827;DHT22;395;48.132;11.608;2023-09-12T12:18:19;26.80;1.00
827;DHT22;395;48.132;11.608;2023-09-12T12:20:44;26.90;1.00
827;DHT22;395;48.132;11.608;2023-09-12T12:23:10;26.90;1.00
827;DHT22;395;48.132;11.608;2023-09-12T12:25:36;26.90;1.00
827;DHT22;395;48.132;11.608;2023-09-12T12:28:03;26.90;1.00
827;DHT22;395;48.132;11.608;2023-09-12T12:30:33;26.90;1.00
827;DHT22;395;48.132;11.608;2023-09-12T12:33:01;26.90;1.00
827;DHT22;395;48.132;11.608;2023-09-12T12:35:28;26.90;1.00
827;DHT22;395;48.132;11.608;2023-09-12T12:37:55;27.00;1.00
827;DHT22;395;48.132;11.608;2023-09-12T12:40:23;27.10;1.00
827;DHT22;395;48.132;11.608;2023-09-12T12:42:50;27.10;1.00
827;DHT22;395;48.132;11.608;2023-09-12T12:45:21;27.10;1.00
827;DHT22;395;48.132;11.608;2023-09-12T12:47:50;27.10;1.00
827;DHT22;395;48.132;11.608;2023-09-12T12:50:16;27.10;1.00
827;DHT22;395;48.132;11.608;2023-09-12T12:52:48;27.20;1.00
827;DHT22;395;48.132;11.608;2023-09-12T12:55:14;27.20;1.00
827;DHT22;395;48.132;11.608;2023-09-12T12:57:43;27.20;1.00
827;DHT22;395;48.132;11.608;2023-09-12T13:00:10;27.30;1.00
827;DHT22;395;48.132;11.608;2023-09-12T13:02:40;27.40;1.00
827;DHT22;395;48.132;11.608;2023-09-12T13:05:30;27.40;1.00
827;DHT22;395;48.132;11.608;2023-09-12T13:07:57;27.50;1.00
827;DHT22;395;48.132;11.608;2023-09-12T13:10:23;27.60;1.00
827;DHT22;395;48.132;11.608;2023-09-12T13:12:49;27.70;1.00
827;DHT22;395;48.132;11.608;2023-09-12T13:15:16;27.70;1.00
827;DHT22;395;48.132;11.608;2023-09-12T13:17:43;27.80;1.00
827;DHT22;395;48.132;11.608;2023-09-12T13:20:09;27.90;1.00
827;DHT22;395;48.132;11.608;2023-09-12T13:22:35;28.00;1.00
827;DHT22;395;48.132;11.608;2023-09-12T13:25:02;28.10;1.00
827;DHT22;395;48.132;11.608;2023-09-12T13:27:28;28.20;1.00
827;DHT22;395;48.132;11.608;2023-09-12T13:29:53;28.30;1.00
827;DHT22;395;48.132;11.608;2023-09-12T13:32:19;28.30;1.00
827;DHT22;395;48.132;11.608;2023-09-12T13:34:45;28.40;1.00
827;DHT22;395;48.132;11.608;2023-09-12T13:37:11;28.50;1.00
827;DHT22;395;48.132;11.608;2023-09-12T13:39:37;28.60;1.00
827;DHT22;395;48.132;11.608;2023-09-12T13:42:02;28.60;1.00
827;DHT22;395;48.132;11.608;2023-09-12T13:44:30;28.70;1.00
827;DHT22;395;48.132;11.608;2023-09-12T13:46:55;28.80;1.00
827;DHT22;395;48.132;11.608;2023-09-12T13:49:21;28.90;1.00
827;DHT22;395;48.132;11.608;2023-09-12T13:51:47;29.00;1.00
827;DHT22;395;48.132;11.608;2023-09-12T13:54:12;29.10;1.00
827;DHT22;395;48.132;11.608;2023-09-12T13:56:41;29.10;1.00
827;DHT22;395;48.132;11.608;2023-09-12T13:59:07;29.20;1.00
827;DHT22;395;48.132;11.608;2023-09-12T14:01:32;29.20;1.00
827;DHT22;395;48.132;11.608;2023-09-12T14:03:58;29.30;1.00
827;DHT22;395;48.132;11.608;2023-09-12T14:06:24;29.40;1.00
827;DHT22;395;48.132;11.608;2023-09-12T14:08:49;29.40;1.00
827;DHT22;395;48.132;11.608;2023-09-12T14:11:15;29.30;1.00
827;DHT22;395;48.132;11.608;2023-09-12T14:13:41;29.40;1.00
827;DHT22;395;48.132;11.608;2023-09-12T14:16:06;29.50;1.00
827;DHT22;395;48.132;11.608;2023-09-12T14:18:32;29.50;1.00
827;DHT22;395;48.132;11.608;2023-09-12T14:20:57;29.40;1.00
827;DHT22;395;48.132;11.608;2023-09-12T14:23:23;29.40;1.00
827;DHT22;395;48.132;11.608;2023-09-12T14:25:49;29.40;1.00
827;DHT22;395;48.132;11.608;2023-09-12T14:28:15;29.40;1.00
827;DHT22;395;48.132;11.608;2023-09-12T14:30:40;29.40;1.00
827;DHT22;395;48.132;11.608;2023-09-12T14:33:10;29.40;1.00
827;DHT22;395;48.132;11.608;2023-09-12T14:35:35;29.40;1.00
827;DHT22;395;48.132;11.608;2023-09-12T14:38:04;29.40;1.00
827;DHT22;395;48.132;11.608;2023-09-12T14:40:30;29.40;1.00
827;DHT22;395;48.132;11.608;2023-09-12T14:42:56;29.40;1.00
827;DHT22;395;48.132;11.608;2023-09-12T14:45:21;29.40;1.00
827;DHT22;395;48.132;11.608;2023-09-12T14:47:49;29.40;1.00
827;DHT22;395;48.132;11.608;2023-09-12T14:50:14;29.50;1.00
827;DHT22;395;48.132;11.608;2023-09-12T14:52:40;29.60;1.00
827;DHT22;395;48.132;11.608;2023-09-12T14:55:07;29.70;1.00
827;DHT22;395;48.132;11.608;2023-09-12T14:57:34;29.70;1.00
827;DHT22;395;48.132;11.608;2023-09-12T15:00:00;29.80;1.00
827;DHT22;395;48.132;11.608;2023-09-12T15:02:26;29.90;1.00
827;DHT22;395;48.132;11.608;2023-09-12T15:04:59;30.00;1.00
827;DHT22;395;48.132;11.608;2023-09-12T15:07:25;30.10;1.00
827;DHT22;395;48.132;11.608;2023-09-12T15:09:51;30.10;1.00
827;DHT22;395;48.132;11.608;2023-09-12T15:12:16;30.20;1.00
827;DHT22;395;48.132;11.608;2023-09-12T15:14:42;30.30;1.00
827;DHT22;395;48.132;11.608;2023-09-12T15:17:07;30.20;1.00
827;DHT22;395;48.132;11.608;2023-09-12T15:19:33;30.30;1.00
827;DHT22;395;48.132;11.608;2023-09-12T15:21:59;30.20;1.00
827;DHT22;395;48.132;11.608;2023-09-12T15:24:24;30.10;1.00
827;DHT22;395;48.132;11.608;2023-09-12T15:26:52;30.20;1.00
827;DHT22;395;48.132;11.608;2023-09-12T15:29:17;30.10;1.00
827;DHT22;395;48.132;11.608;2023-09-12T15:31:43;30.20;1.00
827;DHT22;395;48.132;11.608;2023-09-12T15:34:09;30.00;1.00
827;DHT22;395;48.132;11.608;2023-09-12T15:36:45;30.00;1.00
827;DHT22;395;48.132;11.608;2023-09-12T15:39:11;29.90;1.00
827;DHT22;395;48.132;11.608;2023-09-12T15:41:37;29.80;1.00
827;DHT22;395;48.132;11.608;2023-09-12T15:44:03;29.80;1.00
827;DHT22;395;48.132;11.608;2023-09-12T15:46:29;29.80;1.00
827;DHT22;395;48.132;11.608;2023-09-12T15:48:55;29.80;1.00
827;DHT22;395;48.132;11.608;2023-09-12T15:51:22;29.80;1.00
827;DHT22;395;48.132;11.608;2023-09-12T15:53:48;29.70;1.00
827;DHT22;395;48.132;11.608;2023-09-12T15:56:14;29.50;1.00
827;DHT22;395;48.132;11.608;2023-09-12T15:58:39;29.40;1.00
827;DHT22;395;48.132;11.608;2023-09-12T16:01:05;29.20;1.00
827;DHT22;395;48.132;11.608;2023-09-12T16:03:34;29.10;1.00
827;DHT22;395;48.132;11.608;2023-09-12T16:06:00;28.90;1.00
827;DHT22;395;48.132;11.608;2023-09-12T16:08:25;28.70;1.00
827;DHT22;395;48.132;11.608;2023-09-12T16:10:52;28.80;1.00
827;DHT22;395;48.132;11.608;2023-09-12T16:13:18;28.70;1.00
827;DHT22;395;48.132;11.608;2023-09-12T16:15:44;28.70;1.00
827;DHT22;395;48.132;11.608;2023-09-12T16:18:09;28.50;1.00
827;DHT22;395;48.132;11.608;2023-09-12T16:20:35;28.30;1.00
827;DHT22;395;48.132;11.608;2023-09-12T16:23:01;28.20;1.00
827;DHT22;395;48.132;11.608;2023-09-12T16:25:26;28.20;1.00
827;DHT22;395;48.132;11.608;2023-09-12T16:27:52;28.10;1.00
827;DHT22;395;48.132;11.608;2023-09-12T16:30:18;28.10;1.00
827;DHT22;395;48.132;11.608;2023-09-12T16:32:43;28.00;1.00
827;DHT22;395;48.132;11.608;2023-09-12T16:35:09;28.00;1.00
827;DHT22;395;48.132;11.608;2023-09-12T16:37:36;27.90;1.00
827;DHT22;395;48.132;11.608;2023-09-12T16:40:02;27.80;1.00
827;DHT22;395;48.132;11.608;2023-09-12T16:42:29;27.70;1.00
827;DHT22;395;48.132;11.608;2023-09-12T16:44:58;27.60;1.00
827;DHT22;395;48.132;11.608;2023-09-12T16:47:28;27.50;1.00